Time;durP1;ratioP1;P1;durP2;ratioP2;P2;SDS_P1;SDS_P2;PMS_P1;PMS_P2;Temp;Humidity;BMP_temperature;BMP_pressure;BME280_temperature;BME280_humidity;BME280_pressure;Samples;Min_cycle;Max_cycle;Signal;HPM_P1;HPM_P2
2023/03/04 00:02:11;;;;;;;21.77;4.35;;;;;;;4.96;100.00;-18161.47;5004461;28;20080;-88
2023/03/04 00:04:36;;;;;;;15.68;3.63;;;;;;;4.94;100.00;-18161.03;5001632;28;20541;-88
2023/03/04 00:07:02;;;;;;;19.60;4.05;;;;;;;4.95;100.00;-18161.19;4994965;28;20420;-88
2023/03/04 00:09:27;;;;;;;24.48;3.80;;;;;;;4.98;100.00;-18162.03;4998255;28;20083;-86
2023/03/04 00:11:52;;;;;;;19.13;4.00;;;;;;;4.94;100.00;-18161.03;4986088;28;20053;-87
2023/03/04 00:14:18;;;;;;;16.70;3.72;;;;;;;4.92;100.00;-18160.34;4997220;28;20501;-88
2023/03/04 00:16:43;;;;;;;19.85;4.53;;;;;;;4.95;100.00;-18161.19;4999442;28;20045;-87
2023/03/04 00:19:09;;;;;;;24.10;4.72;;;;;;;4.93;100.00;-18160.78;5034877;28;20071;-87
2023/03/04 00:21:35;;;;;;;20.25;3.90;;;;;;;4.91;100.00;-18160.22;5060028;28;20450;-87
2023/03/04 00:24:00;;;;;;;15.32;3.55;;;;;;;4.89;100.00;-18159.53;5049283;28;20087;-87
2023/03/04 00:26:26;;;;;;;16.25;4.63;;;;;;;4.90;100.00;-18159.94;5063557;28;20124;-86
2023/03/04 00:28:51;;;;;;;25.13;6.00;;;;;;;4.87;100.00;-18159.13;5059876;28;20461;-87
2023/03/04 00:31:16;;;;;;;19.73;3.35;;;;;;;4.90;100.00;-18159.94;5055525;28;20044;-88
2023/03/04 00:33:43;;;;;;;19.80;4.43;;;;;;;4.91;100.00;-18160.22;5052929;28;20055;-87
2023/03/04 00:36:09;;;;;;;14.23;4.25;;;;;;;4.87;100.00;-18159.13;5065728;28;20050;-87
2023/03/04 00:38:34;;;;;;;22.15;4.00;;;;;;;4.92;100.00;-18160.34;5067575;28;20049;-87
2023/03/04 00:41:00;;;;;;;13.40;3.35;;;;;;;4.90;100.00;-18159.81;5061587;28;20053;-87
2023/03/04 00:43:25;;;;;;;21.02;4.75;;;;;;;4.91;100.00;-18160.09;5049650;28;20040;-86
2023/03/04 00:45:50;;;;;;;29.45;4.75;;;;;;;4.91;100.00;-18160.22;5045178;28;20559;-87
2023/03/04 00:48:16;;;;;;;17.30;4.20;;;;;;;4.90;100.00;-18159.94;5049341;28;20086;-87
2023/03/04 00:50:42;;;;;;;16.80;4.82;;;;;;;4.87;100.00;-18159.13;5064395;28;20105;-87
2023/03/04 00:53:09;;;;;;;18.15;4.28;;;;;;;4.88;100.00;-18159.25;5048960;28;20109;-87
2023/03/04 00:55:34;;;;;;;17.10;3.80;;;;;;;4.86;100.00;-18158.84;5037737;28;20105;-87
2023/03/04 00:57:59;;;;;;;19.48;5.00;;;;;;;4.86;100.00;-18158.69;5053165;28;20074;-88
2023/03/04 01:00:25;;;;;;;14.23;3.65;;;;;;;4.86;100.00;-18158.84;5066924;28;20482;-87
2023/03/04 01:02:50;;;;;;;18.30;3.70;;;;;;;4.87;100.00;-18159.13;5064684;28;20036;-87
2023/03/04 01:05:16;;;;;;;21.83;4.50;;;;;;;4.86;100.00;-18158.84;5048118;28;20136;-87
2023/03/04 01:07:41;;;;;;;15.18;3.72;;;;;;;4.85;100.00;-18158.56;5067088;28;20071;-87
2023/03/04 01:10:08;;;;;;;14.60;4.10;;;;;;;4.86;100.00;-18158.69;5065930;28;20048;-87
2023/03/04 01:12:34;;;;;;;14.48;3.90;;;;;;;4.84;100.00;-18158.28;5061074;28;20047;-87
2023/03/04 01:14:59;;;;;;;18.02;4.82;;;;;;;4.86;100.00;-18158.69;5063961;28;20045;-87
2023/03/04 01:17:25;;;;;;;12.55;3.38;;;;;;;4.82;100.00;-18157.59;5063076;28;20496;-87
2023/03/04 01:19:50;;;;;;;13.55;3.28;;;;;;;4.82;100.00;-18157.72;5061847;28;20040;-89
2023/03/04 01:22:17;;;;;;;14.48;3.63;;;;;;;4.82;100.00;-18157.59;5049344;28;20060;-86
2023/03/04 01:24:43;;;;;;;17.38;4.25;;;;;;;4.83;100.00;-18157.88;5072445;28;20047;-87
2023/03/04 01:27:08;;;;;;;17.23;4.03;;;;;;;4.82;100.00;-18157.59;5063981;28;20029;-87
2023/03/04 01:29:37;;;;;;;17.58;4.43;;;;;;;4.78;100.00;-18156.63;5042201;28;20124;-90
2023/03/04 01:32:07;;;;;;;11.85;3.67;;;;;;;4.77;100.00;-18156.34;5052370;28;20048;-89
2023/03/04 01:34:41;;;;;;;12.40;3.67;;;;;;;4.76;100.00;-18156.06;5058211;28;20049;-89
2023/03/04 01:37:06;;;;;;;15.45;3.25;;;;;;;4.75;100.00;-18155.94;5037148;28;20036;-89
2023/03/04 01:39:32;;;;;;;16.65;4.45;;;;;;;4.76;100.00;-18156.06;5059833;28;20060;-89
2023/03/04 01:42:04;;;;;;;14.35;3.58;;;;;;;4.74;100.00;-18155.66;5001733;28;20052;-89
2023/03/04 01:44:29;;;;;;;11.90;3.05;;;;;;;4.73;100.00;-18155.38;5032176;28;20044;-89
2023/03/04 01:46:55;;;;;;;17.85;3.70;;;;;;;4.73;100.00;-18155.25;5005252;28;20041;-89
2023/03/04 01:49:27;;;;;;;15.55;3.47;;;;;;;4.72;100.00;-18155.13;4969248;28;20127;-89
2023/03/04 01:51:53;;;;;;;17.50;4.53;;;;;;;4.73;100.00;-18155.38;4943843;28;20049;-89
2023/03/04 01:54:21;;;;;;;15.82;3.33;;;;;;;4.71;100.00;-18154.84;4962476;28;20073;-89
2023/03/04 01:56:49;;;;;;;14.68;3.90;;;;;;;4.69;100.00;-18154.16;4969177;28;20200;-87
2023/03/04 01:59:23;;;;;;;16.75;3.85;;;;;;;4.73;100.00;-18155.38;4961320;28;20038;-88
2023/03/04 02:01:52;;;;;;;13.25;3.05;;;;;;;4.72;100.00;-18155.13;4971602;28;20781;-89
2023/03/04 02:04:20;;;;;;;25.87;3.20;;;;;;;4.74;100.00;-18155.66;4982871;28;20135;-88
2023/03/04 02:06:47;;;;;;;11.40;2.80;;;;;;;4.75;100.00;-18155.94;4983277;28;20046;-89
2023/03/04 02:09:15;;;;;;;13.52;3.08;;;;;;;4.75;100.00;-18155.94;4978715;28;20050;-89
2023/03/04 02:11:41;;;;;;;16.42;3.28;;;;;;;4.75;100.00;-18155.81;4969704;28;20057;-89
2023/03/04 02:14:06;;;;;;;15.68;3.67;;;;;;;4.72;100.00;-18154.97;4980506;28;20042;-88
2023/03/04 02:16:32;;;;;;;14.00;3.17;;;;;;;4.71;100.00;-18154.69;4984427;28;20063;-88
2023/03/04 02:18:59;;;;;;;10.00;2.53;;;;;;;4.72;100.00;-18154.97;4984642;28;20081;-89
2023/03/04 02:21:28;;;;;;;17.65;3.45;;;;;;;4.71;100.00;-18154.84;4977776;28;20510;-88
2023/03/04 02:24:08;;;;;;;13.80;3.15;;;;;;;4.75;100.00;-18155.94;4969766;28;20046;-88
2023/03/04 02:26:34;;;;;;;11.32;2.88;;;;;;;4.73;100.00;-18155.38;4955446;28;20082;-91
2023/03/04 02:29:01;;;;;;;9.68;2.38;;;;;;;4.75;100.00;-18155.94;4979637;28;20643;-89
2023/03/04 02:31:32;;;;;;;13.63;2.30;;;;;;;4.79;100.00;-18156.78;4970147;28;20544;-88
2023/03/04 02:34:00;;;;;;;10.32;2.92;;;;;;;4.77;100.00;-18156.22;4968292;28;20694;-88
2023/03/04 02:36:28;;;;;;;13.90;2.90;;;;;;;4.74;100.00;-18155.66;4988473;28;20128;-88
2023/03/04 02:38:55;;;;;;;16.52;3.67;;;;;;;4.75;100.00;-18155.94;5019535;28;20052;-89
2023/03/04 02:41:25;;;;;;;16.80;3.10;;;;;;;4.77;100.00;-18156.22;5022797;28;20087;-89
2023/03/04 02:43:54;;;;;;;12.93;2.90;;;;;;;4.74;100.00;-18155.66;5047356;28;20064;-89
2023/03/04 02:46:19;;;;;;;20.40;4.65;;;;;;;4.72;100.00;-18154.97;5061094;28;20044;-88
2023/03/04 02:48:45;;;;;;;14.13;3.53;;;;;;;4.68;100.00;-18154.00;5050752;28;20131;-89
2023/03/04 02:51:10;;;;;;;21.55;3.50;;;;;;;4.68;100.00;-18154.00;5048710;28;20068;-88
2023/03/04 02:53:36;;;;;;;12.15;3.10;;;;;;;4.69;100.00;-18154.28;5038910;28;20491;-88
2023/03/04 02:56:02;;;;;;;16.80;3.40;;;;;;;4.67;100.00;-18153.72;5074952;28;20719;-89
2023/03/04 02:58:28;;;;;;;13.00;2.35;;;;;;;4.73;100.00;-18155.38;5050940;28;20048;-89
2023/03/04 03:00:54;;;;;;;14.63;3.17;;;;;;;4.77;100.00;-18156.22;5050150;28;20091;-89
2023/03/04 03:03:19;;;;;;;13.18;2.63;;;;;;;4.81;100.00;-18157.31;5069110;28;20438;-91
2023/03/04 03:05:45;;;;;;;12.57;3.75;;;;;;;4.78;100.00;-18156.50;5049566;28;20523;-88
2023/03/04 03:08:10;;;;;;;14.20;3.40;;;;;;;4.78;100.00;-18156.50;5051276;28;20037;-88
2023/03/04 03:10:36;;;;;;;11.63;3.17;;;;;;;4.75;100.00;-18155.94;5063166;28;20503;-90
2023/03/04 03:13:02;;;;;;;14.30;3.63;;;;;;;4.77;100.00;-18156.34;5069267;28;20048;-90
2023/03/04 03:15:27;;;;;;;9.73;2.72;;;;;;;4.74;100.00;-18155.53;5070539;28;20064;-88
2023/03/04 03:17:52;;;;;;;11.40;3.15;;;;;;;4.77;100.00;-18156.22;5049699;28;20055;-89
2023/03/04 03:20:18;;;;;;;14.10;2.92;;;;;;;4.72;100.00;-18155.13;5057721;28;20094;-89
2023/03/04 03:22:44;;;;;;;9.23;2.63;;;;;;;4.72;100.00;-18154.97;5064906;28;20622;-88
2023/03/04 03:25:12;;;;;;;11.07;3.13;;;;;;;4.70;100.00;-18154.44;5058208;28;20048;-88
2023/03/04 03:27:37;;;;;;;11.50;3.05;;;;;;;4.67;100.00;-18153.72;5054556;28;20044;-88
2023/03/04 03:30:04;;;;;;;13.68;3.10;;;;;;;4.71;100.00;-18154.84;5049596;28;20044;-89
2023/03/04 03:32:30;;;;;;;10.45;3.10;;;;;;;4.72;100.00;-18155.13;5073203;28;20044;-88
2023/03/04 03:34:55;;;;;;;17.02;2.97;;;;;;;4.72;100.00;-18154.97;5054835;28;20045;-90
2023/03/04 03:37:21;;;;;;;16.58;3.40;;;;;;;4.72;100.00;-18154.97;5055665;28;20819;-88
2023/03/04 03:39:46;;;;;;;12.05;2.92;;;;;;;4.74;100.00;-18155.66;5051519;28;20067;-88
2023/03/04 03:42:11;;;;;;;9.85;2.58;;;;;;;4.74;100.00;-18155.53;5054324;28;20055;-88
2023/03/04 03:44:37;;;;;;;14.68;3.28;;;;;;;4.73;100.00;-18155.38;5059223;28;20041;-90
2023/03/04 03:47:02;;;;;;;10.55;2.60;;;;;;;4.74;100.00;-18155.66;5052835;28;20147;-89
2023/03/04 03:49:28;;;;;;;17.80;3.22;;;;;;;4.74;100.00;-18155.66;5075686;28;20136;-89
2023/03/04 03:51:53;;;;;;;11.73;3.00;;;;;;;4.78;100.00;-18156.50;5053049;28;20474;-88
2023/03/04 03:54:19;;;;;;;18.23;3.85;;;;;;;4.73;100.00;-18155.38;5045785;28;20097;-88
2023/03/04 03:56:44;;;;;;;10.48;2.78;;;;;;;4.78;100.00;-18156.50;5043503;28;20041;-88
2023/03/04 03:59:10;;;;;;;12.38;3.15;;;;;;;4.75;100.00;-18155.81;5047576;28;20174;-89
2023/03/04 04:01:36;;;;;;;16.85;3.38;;;;;;;4.71;100.00;-18154.84;5044698;28;20040;-88
2023/03/04 04:04:01;;;;;;;15.93;2.88;;;;;;;4.74;100.00;-18155.53;5055299;28;20040;-89
2023/03/04 04:06:27;;;;;;;12.82;2.78;;;;;;;4.74;100.00;-18155.66;5072719;28;20039;-88
2023/03/04 04:08:52;;;;;;;14.50;3.10;;;;;;;4.78;100.00;-18156.63;5069525;28;20049;-89
2023/03/04 04:11:18;;;;;;;18.25;3.80;;;;;;;4.80;100.00;-18157.03;5064863;28;20167;-90
2023/03/04 04:13:43;;;;;;;12.18;2.95;;;;;;;4.83;100.00;-18157.88;5047149;28;20084;-89
2023/03/04 04:16:09;;;;;;;15.75;3.33;;;;;;;4.81;100.00;-18157.31;5071645;28;20101;-90
2023/03/04 04:18:35;;;;;;;14.90;3.53;;;;;;;4.79;100.00;-18156.78;5064289;28;20090;-88
2023/03/04 04:21:00;;;;;;;13.30;2.47;;;;;;;4.81;100.00;-18157.31;5051384;28;20164;-89
2023/03/04 04:23:25;;;;;;;14.93;3.30;;;;;;;4.83;100.00;-18157.88;5070213;28;20102;-88
2023/03/04 04:25:56;;;;;;;13.38;2.75;;;;;;;4.84;100.00;-18158.28;5071348;28;20064;-90
2023/03/04 04:28:22;;;;;;;14.13;3.30;;;;;;;4.78;100.00;-18156.50;5053074;28;20385;-88
2023/03/04 04:30:47;;;;;;;10.32;2.30;;;;;;;4.78;100.00;-18156.63;5058620;28;20407;-89
2023/03/04 04:33:12;;;;;;;10.93;2.85;;;;;;;4.80;100.00;-18157.03;5067548;28;20039;-89
2023/03/04 04:35:38;;;;;;;7.75;2.42;;;;;;;4.77;100.00;-18156.22;5073333;28;20048;-89
2023/03/04 04:38:04;;;;;;;10.55;3.03;;;;;;;4.81;100.00;-18157.47;5067614;28;20028;-89
2023/03/04 04:40:30;;;;;;;15.93;3.08;;;;;;;4.83;100.00;-18157.88;5027830;28;20036;-89
2023/03/04 04:42:55;;;;;;;12.93;2.70;;;;;;;4.84;100.00;-18158.28;5050506;28;20071;-89
2023/03/04 04:45:23;;;;;;;9.52;2.65;;;;;;;4.87;100.00;-18158.97;5049872;28;20040;-88
2023/03/04 04:47:49;;;;;;;15.68;3.40;;;;;;;4.83;100.00;-18157.88;5070534;28;20041;-88
2023/03/04 04:50:15;;;;;;;9.88;2.60;;;;;;;4.82;100.00;-18157.59;5076807;28;20046;-88
2023/03/04 04:52:40;;;;;;;12.98;2.78;;;;;;;4.78;100.00;-18156.50;5068660;28;20516;-89
2023/03/04 04:55:06;;;;;;;11.93;2.72;;;;;;;4.78;100.00;-18156.63;5061858;28;20127;-88
2023/03/04 04:57:32;;;;;;;11.57;2.50;;;;;;;4.72;100.00;-18155.13;5064401;28;20113;-89
2023/03/04 04:59:58;;;;;;;10.82;2.50;;;;;;;4.72;100.00;-18155.13;5063268;28;20048;-89
2023/03/04 05:02:23;;;;;;;11.50;2.70;;;;;;;4.70;100.00;-18154.44;5070623;28;20047;-89
2023/03/04 05:04:49;;;;;;;8.50;1.98;;;;;;;4.72;100.00;-18155.13;5047560;28;20037;-90
2023/03/04 05:07:17;;;;;;;8.13;2.75;;;;;;;4.70;100.00;-18154.56;5012242;28;20053;-88
2023/03/04 05:09:43;;;;;;;14.37;2.57;;;;;;;4.69;100.00;-18154.28;5002216;28;20041;-88
2023/03/04 05:12:08;;;;;;;11.98;2.63;;;;;;;4.72;100.00;-18154.97;5013385;28;20041;-89
2023/03/04 05:14:33;;;;;;;12.27;2.25;;;;;;;4.70;100.00;-18154.56;5012066;28;20040;-88
2023/03/04 05:16:59;;;;;;;10.00;3.15;;;;;;;4.70;100.00;-18154.56;5009070;28;20056;-88
2023/03/04 05:19:24;;;;;;;8.45;2.50;;;;;;;4.72;100.00;-18155.13;5009364;28;20045;-89
2023/03/04 05:21:50;;;;;;;9.05;2.17;;;;;;;4.71;100.00;-18154.69;5008807;28;20042;-88
2023/03/04 05:24:15;;;;;;;9.82;2.53;;;;;;;4.73;100.00;-18155.38;4991991;28;20104;-89
2023/03/04 05:26:41;;;;;;;11.27;3.13;;;;;;;4.73;100.00;-18155.38;4979824;28;20129;-88
2023/03/04 05:29:06;;;;;;;12.63;2.50;;;;;;;4.69;100.00;-18154.28;4990219;28;20053;-89
2023/03/04 05:31:32;;;;;;;9.43;2.25;;;;;;;4.67;100.00;-18153.72;5018425;28;20041;-89
2023/03/04 05:33:57;;;;;;;9.57;2.63;;;;;;;4.69;100.00;-18154.28;5022202;28;20208;-88
2023/03/04 05:36:23;;;;;;;8.50;2.17;;;;;;;4.66;100.00;-18153.47;5027858;28;20052;-88
2023/03/04 05:38:48;;;;;;;13.27;2.30;;;;;;;4.66;100.00;-18153.47;5051706;28;20040;-87
2023/03/04 05:41:14;;;;;;;12.63;2.35;;;;;;;4.64;100.00;-18152.91;5055159;28;20044;-87
2023/03/04 05:43:41;;;;;;;13.00;2.20;;;;;;;4.64;100.00;-18152.91;5064367;28;20044;-87
2023/03/04 05:46:08;;;;;;;9.80;2.00;;;;;;;4.65;100.00;-18153.19;5069658;28;20059;-88
2023/03/04 05:48:33;;;;;;;12.48;3.45;;;;;;;4.66;100.00;-18153.47;5053942;28;20036;-89
2023/03/04 05:51:00;;;;;;;8.30;2.78;;;;;;;4.70;100.00;-18154.44;5063913;28;20240;-88
2023/03/04 05:53:27;;;;;;;10.73;2.25;;;;;;;4.68;100.00;-18153.88;5060394;28;20048;-87
2023/03/04 05:55:53;;;;;;;7.88;2.65;;;;;;;4.70;100.00;-18154.44;5052022;28;20058;-88
2023/03/04 05:58:18;;;;;;;8.30;2.10;;;;;;;4.67;100.00;-18153.59;5056225;28;20120;-90
2023/03/04 06:00:43;;;;;;;10.18;1.85;;;;;;;4.67;100.00;-18153.72;5060886;28;20102;-90
2023/03/04 06:03:21;;;;;;;8.95;2.17;;;;;;;4.65;100.00;-18153.19;5063564;28;20051;-88
2023/03/04 06:05:47;;;;;;;7.88;2.00;;;;;;;4.67;100.00;-18153.59;5064838;28;20127;-88
2023/03/04 06:08:13;;;;;;;9.98;2.35;;;;;;;4.65;100.00;-18153.03;5066967;28;20036;-88
2023/03/04 06:10:40;;;;;;;7.10;1.98;;;;;;;4.65;100.00;-18153.19;5070358;28;20098;-89
2023/03/04 06:13:06;;;;;;;10.20;2.25;;;;;;;4.63;100.00;-18152.63;5064257;28;20044;-88
2023/03/04 06:15:32;;;;;;;7.75;2.25;;;;;;;4.68;100.00;-18154.00;5049956;28;20131;-88
2023/03/04 06:17:57;;;;;;;12.43;2.33;;;;;;;4.66;100.00;-18153.31;5063332;28;20071;-87
2023/03/04 06:20:22;;;;;;;9.52;2.15;;;;;;;4.64;100.00;-18152.78;5062309;28;20044;-88
2023/03/04 06:22:48;;;;;;;9.10;2.45;;;;;;;4.62;100.00;-18152.22;5063058;28;20488;-88
2023/03/04 06:25:13;;;;;;;5.78;2.30;;;;;;;4.64;100.00;-18152.91;5048396;28;20075;-87
2023/03/04 06:27:39;;;;;;;8.38;2.50;;;;;;;4.64;100.00;-18152.91;5055650;28;20040;-87
2023/03/04 06:30:05;;;;;;;11.77;2.53;;;;;;;4.64;100.00;-18152.91;5066216;28;20064;-89
2023/03/04 06:32:30;;;;;;;10.27;2.55;;;;;;;4.63;100.00;-18152.63;5054108;28;20044;-90
2023/03/04 06:34:56;;;;;;;9.45;2.75;;;;;;;4.64;100.00;-18152.91;5047050;28;20057;-89
2023/03/04 06:37:22;;;;;;;11.18;2.60;;;;;;;4.67;100.00;-18153.72;5048677;28;20041;-87
2023/03/04 06:39:47;;;;;;;14.63;3.00;;;;;;;4.66;100.00;-18153.47;5042333;28;20068;-89
2023/03/04 06:42:13;;;;;;;9.63;2.53;;;;;;;4.66;100.00;-18153.31;5046049;28;20135;-88
2023/03/04 06:44:39;;;;;;;8.90;2.58;;;;;;;4.62;100.00;-18152.34;5047286;28;20033;-90
2023/03/04 06:47:04;;;;;;;8.45;2.30;;;;;;;4.62;100.00;-18152.34;5044888;28;20055;-89
2023/03/04 06:49:29;;;;;;;9.45;2.60;;;;;;;4.65;100.00;-18153.03;5063130;28;20041;-88
2023/03/04 06:51:55;;;;;;;15.32;2.55;;;;;;;4.68;100.00;-18153.88;5054142;28;20090;-88
2023/03/04 06:54:20;;;;;;;8.85;2.33;;;;;;;4.66;100.00;-18153.47;5069763;28;20806;-88
2023/03/04 06:56:46;;;;;;;8.95;2.13;;;;;;;4.69;100.00;-18154.16;5061458;28;20086;-88
2023/03/04 06:59:11;;;;;;;6.75;2.50;;;;;;;4.65;100.00;-18153.19;5044292;28;20049;-88
2023/03/04 07:01:37;;;;;;;13.55;3.15;;;;;;;4.65;100.00;-18153.19;5059982;28;20201;-88
2023/03/04 07:04:02;;;;;;;14.65;2.47;;;;;;;4.63;100.00;-18152.50;5036014;28;20128;-89
2023/03/04 07:06:28;;;;;;;8.05;2.60;;;;;;;4.60;100.00;-18151.66;5048822;28;20052;-88
2023/03/04 07:08:54;;;;;;;9.55;3.30;;;;;;;4.62;100.00;-18152.34;5060077;28;20064;-88
2023/03/04 07:11:21;;;;;;;13.00;3.85;;;;;;;4.55;100.00;-18150.28;5038929;28;20045;-88
2023/03/04 07:13:46;;;;;;;14.77;3.53;;;;;;;4.54;100.00;-18150.13;5063972;28;20124;-88
2023/03/04 07:16:16;;;;;;;11.00;2.88;;;;;;;4.58;100.00;-18151.25;5034036;28;20124;-89
2023/03/04 07:18:42;;;;;;;14.35;3.05;;;;;;;4.56;100.00;-18150.56;5066026;28;20131;-88
2023/03/04 07:21:08;;;;;;;14.02;4.07;;;;;;;4.57;100.00;-18150.97;5036303;28;20044;-89
2023/03/04 07:23:34;;;;;;;13.52;4.88;;;;;;;4.58;100.00;-18151.25;5041085;28;20102;-88
2023/03/04 07:25:59;;;;;;;11.10;3.78;;;;;;;4.57;100.00;-18150.97;5045701;28;20041;-88
2023/03/04 07:28:25;;;;;;;21.52;5.43;;;;;;;4.63;100.00;-18152.63;5067879;28;20043;-88
2023/03/04 07:30:50;;;;;;;14.65;4.20;;;;;;;4.59;100.00;-18151.53;5050193;28;20032;-88
2023/03/04 07:33:16;;;;;;;12.65;3.42;;;;;;;4.60;100.00;-18151.78;5050412;28;20040;-89
2023/03/04 07:35:41;;;;;;;10.43;3.42;;;;;;;4.62;100.00;-18152.34;5049701;28;20036;-89
2023/03/04 07:38:07;;;;;;;12.13;4.03;;;;;;;4.61;100.00;-18152.06;5078824;28;20376;-89
2023/03/04 07:40:32;;;;;;;8.80;3.00;;;;;;;4.59;100.00;-18151.38;5060827;28;20047;-89
2023/03/04 07:42:58;;;;;;;10.90;3.55;;;;;;;4.64;100.00;-18152.78;5057835;28;20036;-89
2023/03/04 07:45:23;;;;;;;10.88;3.47;;;;;;;4.59;100.00;-18151.53;5070628;28;20075;-89
2023/03/04 07:47:49;;;;;;;14.35;4.22;;;;;;;4.62;100.00;-18152.34;5043144;28;20037;-88
2023/03/04 07:50:15;;;;;;;15.45;4.93;;;;;;;4.69;100.00;-18154.16;5056312;28;20048;-88
2023/03/04 07:52:44;;;;;;;13.43;4.38;;;;;;;4.69;100.00;-18154.28;5033744;28;20036;-88
2023/03/04 07:55:11;;;;;;;11.90;3.58;;;;;;;4.71;100.00;-18154.84;5047978;28;20048;-87
2023/03/04 07:57:44;;;;;;;10.50;3.58;;;;;;;4.75;100.00;-18155.81;5036098;28;20642;-88
2023/03/04 08:00:12;;;;;;;9.38;3.67;;;;;;;4.78;100.00;-18156.63;5041424;28;20101;-89
2023/03/04 08:02:37;;;;;;;5.32;2.72;;;;;;;4.81;100.00;-18157.31;5051821;28;20110;-87
2023/03/04 08:05:03;;;;;;;11.65;3.78;;;;;;;4.81;100.00;-18157.31;5046532;28;20100;-87
2023/03/04 08:07:28;;;;;;;14.90;4.07;;;;;;;4.86;100.00;-18158.84;5049344;28;20056;-87
2023/03/04 08:09:53;;;;;;;12.02;4.25;;;;;;;4.91;100.00;-18160.22;5074295;28;20068;-89
2023/03/04 08:12:19;;;;;;;12.27;3.72;;;;;;;4.93;100.00;-18160.63;5059661;28;20037;-87
2023/03/04 08:14:44;;;;;;;8.18;3.08;;;;;;;4.93;100.00;-18160.78;5051101;28;20132;-87
2023/03/04 08:17:10;;;;;;;9.90;3.45;;;;;;;4.99;100.00;-18162.28;5046742;28;20094;-87
2023/03/04 08:19:35;;;;;;;11.60;3.38;;;;;;;5.03;100.00;-18163.25;5070726;28;20389;-88
2023/03/04 08:22:01;;;;;;;7.68;3.08;;;;;;;4.98;100.00;-18162.16;5070053;28;20083;-86
2023/03/04 08:24:27;;;;;;;10.70;3.47;;;;;;;5.06;100.00;-18164.22;5050665;28;20039;-87
2023/03/04 08:26:53;;;;;;;8.90;2.70;;;;;;;5.17;100.00;-18167.13;5048531;28;20097;-87
2023/03/04 08:29:22;;;;;;;10.45;2.85;;;;;;;5.16;100.00;-18166.97;5071074;28;20094;-87
2023/03/04 08:31:48;;;;;;;;;;;;;;;5.23;100.00;-18168.63;5052536;28;20045;-88
2023/03/04 08:34:14;;;;;;;9.65;2.60;;;;;;;5.18;100.00;-18167.53;5051693;28;19920;-86
2023/03/04 08:36:43;;;;;;;7.85;3.08;;;;;;;5.24;100.00;-18168.91;5043778;28;20118;-87
2023/03/04 08:39:11;;;;;;;10.68;2.55;;;;;;;5.24;100.00;-18168.91;5064836;28;20045;-87
2023/03/04 08:41:37;;;;;;;5.65;2.25;;;;;;;5.30;100.00;-18170.56;5067479;28;20136;-87
2023/03/04 08:44:03;;;;;;;9.23;2.72;;;;;;;5.32;100.00;-18171.13;5055309;28;20454;-88
2023/03/04 08:46:29;;;;;;;11.35;2.45;;;;;;;5.30;100.00;-18170.56;5069157;28;20041;-87
2023/03/04 08:48:55;;;;;;;7.15;2.70;;;;;;;5.36;100.00;-18172.22;5057206;28;20044;-87
2023/03/04 08:51:20;;;;;;;6.95;2.13;;;;;;;5.38;100.00;-18172.78;5056552;28;20132;-87
2023/03/04 08:53:46;;;;;;;7.75;2.60;;;;;;;5.35;100.00;-18172.09;5059140;28;20070;-86
2023/03/04 08:56:12;;;;;;;5.82;2.25;;;;;;;5.41;100.00;-18173.63;5069973;28;20106;-89
2023/03/04 08:58:38;;;;;;;7.13;2.47;;;;;;;5.43;100.00;-18174.28;5077321;28;20045;-88
2023/03/04 09:01:07;;;;;;;9.32;2.20;;;;;;;5.47;100.00;-18175.13;5062415;28;20067;-87
2023/03/04 09:03:33;;;;;;;8.68;2.25;;;;;;;5.45;100.00;-18174.72;5058690;28;20040;-87
2023/03/04 09:06:01;;;;;;;8.77;2.10;;;;;;;5.51;100.00;-18176.22;5039885;28;20450;-87
2023/03/04 09:08:26;;;;;;;8.85;2.20;;;;;;;5.52;100.00;-18176.50;5047333;28;20484;-87
2023/03/04 09:10:53;;;;;;;7.97;2.50;;;;;;;5.55;100.00;-18177.47;5059607;28;20044;-87
2023/03/04 09:13:18;;;;;;;6.90;1.83;;;;;;;5.58;100.00;-18178.31;5035890;28;20052;-86
2023/03/04 09:15:46;;;;;;;9.27;2.50;;;;;;;5.69;100.00;-18181.06;5061749;28;20044;-87
2023/03/04 09:18:12;;;;;;;6.15;2.25;;;;;;;5.62;100.00;-18179.25;5048838;28;20040;-86
2023/03/04 09:20:37;;;;;;;7.72;2.50;;;;;;;5.60;100.00;-18178.84;5060642;28;20541;-87
2023/03/04 09:23:03;;;;;;;7.35;2.80;;;;;;;5.58;100.00;-18178.31;5061285;28;20049;-87
2023/03/04 09:25:28;;;;;;;13.90;2.67;;;;;;;5.62;100.00;-18179.25;5064820;28;20036;-88
2023/03/04 09:27:53;;;;;;;9.85;2.90;;;;;;;5.61;100.00;-18179.13;5056740;28;20132;-86
2023/03/04 09:30:19;;;;;;;8.02;2.55;;;;;;;5.66;100.00;-18180.50;5074643;28;20036;-85
2023/03/04 09:32:45;;;;;;;6.43;2.80;;;;;;;5.70;100.00;-18181.47;5056535;28;20070;-87
2023/03/04 09:35:10;;;;;;;6.38;2.75;;;;;;;5.63;100.00;-18179.53;5081734;28;20504;-85
2023/03/04 09:37:35;;;;;;;7.38;2.17;;;;;;;5.68;100.00;-18180.78;5084168;28;20055;-86
2023/03/04 09:40:03;;;;;;;5.38;2.50;;;;;;;5.68;100.00;-18180.78;5071239;28;20503;-86
2023/03/04 09:42:37;;;;;;;8.65;2.70;;;;;;;5.68;100.00;-18180.78;5076702;28;20045;-85
2023/03/04 09:45:05;;;;;;;6.65;2.90;;;;;;;5.69;100.00;-18181.06;5056636;28;20089;-85
2023/03/04 09:47:35;;;;;;;7.05;2.60;;;;;;;5.68;100.00;-18180.78;5075869;28;20036;-84
2023/03/04 09:50:06;;;;;;;7.68;2.70;;;;;;;5.77;100.00;-18183.41;5075239;28;20037;-85
2023/03/04 09:53:01;;;;;;;8.13;3.65;;;;;;;5.74;100.00;-18182.44;5073471;28;20041;-86
2023/03/04 09:55:29;;;;;;;5.32;3.30;;;;;;;5.70;100.00;-18181.47;5060823;28;20424;-85
2023/03/04 09:58:25;;;;;;;9.50;2.93;;;;;;;5.71;100.00;-18181.75;5075320;28;20036;-86
2023/03/04 10:01:01;;;;;;;5.50;3.30;;;;;;;5.66;100.00;-18180.50;5064702;28;20278;-86
2023/03/04 10:04:00;;;;;;;7.30;3.55;;;;;;;5.73;100.00;-18182.16;5046122;28;20047;-85
2023/03/04 10:06:26;;;;;;;6.88;3.20;;;;;;;5.73;100.00;-18182.16;5067103;28;20041;-85
2023/03/04 10:09:20;;;;;;;6.30;3.38;;;;;;;5.75;100.00;-18182.72;5075730;28;20079;-85
2023/03/04 10:12:00;;;;;;;7.70;3.28;;;;;;;5.75;100.00;-18182.84;5061015;28;20296;-86
2023/03/04 10:14:44;;;;;;;6.72;3.03;;;;;;;5.84;100.00;-18185.19;5074196;28;20724;-85
2023/03/04 10:17:15;;;;;;;8.85;4.70;;;;;;;5.82;100.00;-18184.78;5066253;28;20044;-85
2023/03/04 10:19:54;;;;;;;10.40;3.60;;;;;;;5.98;100.00;-18189.06;5052140;28;21447;-85
2023/03/04 10:22:43;;;;;;;10.68;3.17;;;;;;;6.05;100.00;-18191.00;5059990;28;20520;-85
2023/03/04 10:25:21;;;;;;;5.75;2.80;;;;;;;6.04;100.00;-18190.72;5059816;28;20655;-85
2023/03/04 10:28:01;;;;;;;5.13;2.70;;;;;;;6.05;100.00;-18190.84;5060067;28;20078;-85
2023/03/04 10:30:38;;;;;;;6.32;2.70;;;;;;;5.96;100.00;-18188.38;5054715;28;20123;-86
2023/03/04 10:33:19;;;;;;;5.90;2.70;;;;;;;5.97;100.00;-18188.66;5051708;28;20783;-85
2023/03/04 10:35:51;;;;;;;5.60;3.47;;;;;;;5.94;100.00;-18187.81;5083201;28;20074;-85
2023/03/04 10:38:19;;;;;;;5.55;3.08;;;;;;;5.96;100.00;-18188.50;5042643;28;20105;-85
2023/03/04 10:40:44;;;;;;;5.97;2.85;;;;;;;6.00;100.00;-18189.63;5074149;28;20056;-85
2023/03/04 10:43:16;;;;;;;7.88;3.50;;;;;;;6.01;100.00;-18189.91;5054742;28;20087;-85
2023/03/04 10:45:42;;;;;;;8.70;4.15;;;;;;;6.04;100.00;-18190.72;5067259;28;20041;-84
2023/03/04 10:48:18;;;;;;;7.85;3.90;;;;;;;6.08;100.00;-18191.81;5065414;28;20040;-84
2023/03/04 10:50:43;;;;;;;9.23;3.55;;;;;;;6.09;100.00;-18192.09;5074421;28;20495;-84
2023/03/04 10:53:24;;;;;;;5.93;3.58;;;;;;;6.13;100.00;-18192.94;5058356;28;20051;-85
2023/03/04 10:55:49;;;;;;;5.65;3.20;;;;;;;6.13;100.00;-18192.94;5076682;28;20045;-86
2023/03/04 10:58:18;;;;;;;7.70;3.80;;;;;;;6.13;100.00;-18193.06;5066160;28;20052;-85
2023/03/04 11:00:43;;;;;;;7.88;3.00;;;;;;;6.15;100.00;-18193.63;5059009;28;20051;-85
2023/03/04 11:03:27;;;;;;;6.78;3.45;;;;;;;6.13;100.00;-18193.06;5073502;28;20037;-85
2023/03/04 11:06:09;;;;;;;10.57;3.47;;;;;;;6.15;100.00;-18193.47;5062189;28;20044;-85
2023/03/04 11:08:35;;;;;;;5.38;2.92;;;;;;;6.19;100.00;-18194.59;5069555;28;20039;-86
2023/03/04 11:11:00;;;;;;;4.55;2.75;;;;;;;6.27;100.00;-18196.94;5052184;28;20048;-85
2023/03/04 11:13:26;;;;;;;6.63;2.47;;;;;;;6.17;100.00;-18194.03;5063063;28;20079;-85
2023/03/04 11:15:57;;;;;;;5.97;2.25;;;;;;;6.24;100.00;-18196.09;5046686;28;20499;-85
2023/03/04 11:18:27;;;;;;;6.32;2.15;;;;;;;6.37;100.00;-18199.53;5065714;28;20033;-85
2023/03/04 11:20:54;;;;;;;6.35;2.20;;;;;;;6.51;100.00;-18203.41;5057132;28;20041;-85